createdAt,value
2018-10-09T11:33:31.394Z,23.50
2018-10-09T11:38:43.216Z,20.80
2018-10-09T11:43:54.679Z,18.90
2018-10-09T11:48:55.213Z,19.20
2018-10-09T11:53:52.026Z,16.70
2018-10-09T11:58:52.561Z,16.90
2018-10-09T12:03:48.459Z,16.10
2018-10-09T12:08:43.706Z,16.70
2018-10-09T12:13:37.142Z,14.00
2018-10-09T12:18:32.896Z,13.50
2018-10-09T12:23:27.951Z,12.50
2018-10-09T12:28:22.030Z,12.70
2018-10-09T12:33:16.321Z,9.90
2018-10-09T12:38:07.861Z,10.20
2018-10-09T12:43:00.359Z,11.40
2018-10-09T12:47:52.523Z,12.00
2018-10-09T12:52:44.356Z,10.50
2018-10-09T12:57:39.439Z,11.60
2018-10-09T13:02:34.218Z,11.30
2018-10-09T13:07:34.492Z,11.00
2018-10-09T13:12:28.824Z,12.70
2018-10-09T13:17:23.256Z,11.60
2018-10-09T13:22:18.714Z,9.20
2018-10-09T13:27:14.663Z,10.00
2018-10-09T13:32:10.056Z,8.90
2018-10-09T13:37:06.564Z,9.20
2018-10-09T13:42:01.231Z,9.40
2018-10-09T13:46:55.905Z,9.20
2018-10-09T13:51:50.360Z,10.80
2018-10-09T13:56:45.037Z,10.20
2018-10-09T14:01:40.177Z,10.60
2018-10-09T14:06:34.560Z,8.80
2018-10-09T14:11:31.803Z,10.40
2018-10-09T14:16:25.923Z,8.80
2018-10-09T14:21:20.691Z,9.20
2018-10-09T14:26:14.937Z,12.90
2018-10-09T14:31:11.857Z,10.40
2018-10-09T14:36:04.161Z,10.50
2018-10-09T14:41:01.620Z,9.70
2018-10-09T14:45:57.885Z,12.20
2018-10-09T14:50:54.466Z,11.00
2018-10-09T14:55:51.441Z,10.60
2018-10-09T15:00:49.950Z,8.50
2018-10-09T15:05:49.073Z,10.50
2018-10-09T15:10:47.195Z,10.20
2018-10-09T15:15:46.119Z,9.30
2018-10-09T15:18:52.101Z,10.50
2018-10-09T15:23:55.453Z,8.60
2018-10-09T15:29:09.160Z,8.60
2018-10-09T15:34:15.268Z,8.10
2018-10-09T15:39:22.971Z,8.70
2018-10-09T15:44:30.720Z,8.10
2018-10-09T15:49:36.908Z,8.20
2018-10-09T15:54:45.608Z,8.90
2018-10-09T15:59:50.547Z,7.90
2018-10-09T16:04:58.501Z,7.50
2018-10-09T16:10:13.111Z,6.90
2018-10-09T16:15:17.819Z,6.60
2018-10-09T16:20:32.572Z,7.70
2018-10-09T16:25:46.202Z,7.10
2018-10-09T16:31:00.153Z,10.10
2018-10-09T16:36:17.224Z,8.00
2018-10-09T16:41:34.481Z,7.80
2018-10-09T16:52:08.129Z,8.60
2018-10-09T17:23:45.085Z,9.80
